sensor_id;sensor_type;location;lat;lon;timestamp;P1;durP1;ratioP1;P2;durP2;ratioP2
59492;SDS011;45497;43.996;22.876;2024-01-30T00:08:26;0.40;;;0.40;;
59492;SDS011;45497;43.996;22.876;2024-01-30T00:11:12;0.80;;;0.80;;
59492;SDS011;45497;43.996;22.876;2024-01-30T00:13:48;0.90;;;0.90;;
59492;SDS011;45497;43.996;22.876;2024-01-30T00:19:05;1.08;;;0.82;;
59492;SDS011;45497;43.996;22.876;2024-01-30T00:22:08;1.05;;;0.80;;
59492;SDS011;45497;43.996;22.876;2024-01-30T00:25:04;1.50;;;0.80;;
59492;SDS011;45497;43.996;22.876;2024-01-30T00:27:45;1.50;;;0.63;;
59492;SDS011;45497;43.996;22.876;2024-01-30T00:33:49;5.22;;;2.08;;
59492;SDS011;45497;43.996;22.876;2024-01-30T00:36:28;0.95;;;0.85;;
59492;SDS011;45497;43.996;22.876;2024-01-30T00:38:56;2.40;;;1.40;;
59492;SDS011;45497;43.996;22.876;2024-01-30T00:44:42;0.85;;;0.85;;
59492;SDS011;45497;43.996;22.876;2024-01-30T00:47:14;0.68;;;0.68;;
59492;SDS011;45497;43.996;22.876;2024-01-30T00:55:12;1.08;;;1.00;;
59492;SDS011;45497;43.996;22.876;2024-01-30T02:40:02;5.47;;;2.20;;
59492;SDS011;45497;43.996;22.876;2024-01-30T02:42:32;1.70;;;0.93;;
59492;SDS011;45497;43.996;22.876;2024-01-30T02:50:21;1.67;;;1.57;;
59492;SDS011;45497;43.996;22.876;2024-01-30T02:52:54;0.80;;;0.70;;
59492;SDS011;45497;43.996;22.876;2024-01-30T02:55:41;0.40;;;0.40;;
59492;SDS011;45497;43.996;22.876;2024-01-30T02:58:16;0.55;;;0.50;;
59492;SDS011;45497;43.996;22.876;2024-01-30T03:00:44;0.93;;;0.63;;
59492;SDS011;45497;43.996;22.876;2024-01-30T03:03:10;0.55;;;0.45;;
59492;SDS011;45497;43.996;22.876;2024-01-30T03:05:38;0.47;;;0.47;;
59492;SDS011;45497;43.996;22.876;2024-01-30T03:08:10;0.55;;;0.45;;
59492;SDS011;45497;43.996;22.876;2024-01-30T03:14:32;0.45;;;0.40;;
59492;SDS011;45497;43.996;22.876;2024-01-30T03:16:58;0.40;;;0.40;;
59492;SDS011;45497;43.996;22.876;2024-01-30T03:19:24;0.50;;;0.43;;
59492;SDS011;45497;43.996;22.876;2024-01-30T03:21:50;0.90;;;0.50;;
59492;SDS011;45497;43.996;22.876;2024-01-30T03:24:16;0.70;;;0.70;;
59492;SDS011;45497;43.996;22.876;2024-01-30T03:26:43;0.68;;;0.60;;
59492;SDS011;45497;43.996;22.876;2024-01-30T03:29:09;0.70;;;0.70;;
59492;SDS011;45497;43.996;22.876;2024-01-30T03:31:35;1.00;;;1.00;;
59492;SDS011;45497;43.996;22.876;2024-01-30T03:34:01;1.30;;;1.10;;
59492;SDS011;45497;43.996;22.876;2024-01-30T03:36:35;0.70;;;0.65;;
59492;SDS011;45497;43.996;22.876;2024-01-30T03:39:04;0.80;;;0.80;;
59492;SDS011;45497;43.996;22.876;2024-01-30T03:41:35;0.60;;;0.50;;
59492;SDS011;45497;43.996;22.876;2024-01-30T03:44:09;1.08;;;0.68;;
59492;SDS011;45497;43.996;22.876;2024-01-30T03:46:38;0.70;;;0.70;;
59492;SDS011;45497;43.996;22.876;2024-01-30T03:49:10;0.52;;;0.52;;
59492;SDS011;45497;43.996;22.876;2024-01-30T03:51:35;0.50;;;0.50;;
59492;SDS011;45497;43.996;22.876;2024-01-30T03:54:01;0.80;;;0.80;;
59492;SDS011;45497;43.996;22.876;2024-01-30T03:56:40;1.88;;;0.60;;
59492;SDS011;45497;43.996;22.876;2024-01-30T03:59:16;0.40;;;0.40;;
59492;SDS011;45497;43.996;22.876;2024-01-30T04:01:52;1.20;;;0.90;;
59492;SDS011;45497;43.996;22.876;2024-01-30T04:06:58;0.40;;;0.40;;
59492;SDS011;45497;43.996;22.876;2024-01-30T04:09:26;1.42;;;1.08;;
59492;SDS011;45497;43.996;22.876;2024-01-30T04:12:07;0.70;;;0.70;;
59492;SDS011;45497;43.996;22.876;2024-01-30T04:14:39;0.65;;;0.65;;
59492;SDS011;45497;43.996;22.876;2024-01-30T04:17:18;0.90;;;0.80;;
59492;SDS011;45497;43.996;22.876;2024-01-30T18:09:01;2.17;;;2.08;;
59492;SDS011;45497;43.996;22.876;2024-01-30T18:11:27;1.75;;;1.65;;
59492;SDS011;45497;43.996;22.876;2024-01-30T18:13:58;2.28;;;2.17;;
59492;SDS011;45497;43.996;22.876;2024-01-30T18:16:28;0.80;;;0.70;;
59492;SDS011;45497;43.996;22.876;2024-01-30T18:18:56;2.20;;;2.10;;
59492;SDS011;45497;43.996;22.876;2024-01-30T18:24:01;10.05;;;9.13;;
59492;SDS011;45497;43.996;22.876;2024-01-30T18:26:27;13.65;;;12.05;;
59492;SDS011;45497;43.996;22.876;2024-01-30T18:32:13;4.07;;;3.65;;
59492;SDS011;45497;43.996;22.876;2024-01-30T19:09:38;2.70;;;2.20;;
59492;SDS011;45497;43.996;22.876;2024-01-30T19:43:19;2.67;;;2.58;;
59492;SDS011;45497;43.996;22.876;2024-01-30T19:46:06;1.17;;;1.13;;
59492;SDS011;45497;43.996;22.876;2024-01-30T19:48:36;0.52;;;0.52;;
59492;SDS011;45497;43.996;22.876;2024-01-30T19:51:11;0.50;;;0.50;;
59492;SDS011;45497;43.996;22.876;2024-01-30T19:57:13;1.48;;;1.38;;
59492;SDS011;45497;43.996;22.876;2024-01-30T20:16:21;0.60;;;0.50;;
59492;SDS011;45497;43.996;22.876;2024-01-30T20:18:47;2.10;;;1.00;;
59492;SDS011;45497;43.996;22.876;2024-01-30T20:21:15;0.82;;;0.82;;
59492;SDS011;45497;43.996;22.876;2024-01-30T20:23:41;1.27;;;0.82;;
59492;SDS011;45497;43.996;22.876;2024-01-30T20:26:09;0.70;;;0.70;;
59492;SDS011;45497;43.996;22.876;2024-01-30T20:28:35;1.70;;;1.10;;
59492;SDS011;45497;43.996;22.876;2024-01-30T20:31:01;0.40;;;0.40;;
59492;SDS011;45497;43.996;22.876;2024-01-30T20:33:30;1.70;;;1.30;;
59492;SDS011;45497;43.996;22.876;2024-01-30T20:36:07;1.30;;;1.20;;
59492;SDS011;45497;43.996;22.876;2024-01-30T20:38:36;0.95;;;0.95;;
59492;SDS011;45497;43.996;22.876;2024-01-30T20:41:05;0.40;;;0.40;;
59492;SDS011;45497;43.996;22.876;2024-01-30T20:43:36;0.60;;;0.60;;
59492;SDS011;45497;43.996;22.876;2024-01-30T20:46:03;0.60;;;0.60;;
59492;SDS011;45497;43.996;22.876;2024-01-30T20:48:31;0.70;;;0.70;;
59492;SDS011;45497;43.996;22.876;2024-01-30T20:50:57;0.50;;;0.50;;
59492;SDS011;45497;43.996;22.876;2024-01-30T20:53:25;0.50;;;0.50;;
59492;SDS011;45497;43.996;22.876;2024-01-30T20:55:51;0.47;;;0.47;;
59492;SDS011;45497;43.996;22.876;2024-01-30T20:58:25;0.70;;;0.70;;
59492;SDS011;45497;43.996;22.876;2024-01-30T21:00:54;0.70;;;0.63;;
59492;SDS011;45497;43.996;22.876;2024-01-30T21:03:29;0.43;;;0.43;;
59492;SDS011;45497;43.996;22.876;2024-01-30T21:05:57;0.30;;;0.30;;
59492;SDS011;45497;43.996;22.876;2024-01-30T21:08:23;0.30;;;0.30;;
59492;SDS011;45497;43.996;22.876;2024-01-30T21:10:52;1.40;;;0.70;;
59492;SDS011;45497;43.996;22.876;2024-01-30T21:13:20;1.10;;;1.00;;
59492;SDS011;45497;43.996;22.876;2024-01-30T21:15:48;0.70;;;0.70;;
59492;SDS011;45497;43.996;22.876;2024-01-30T21:18:27;0.32;;;0.32;;
59492;SDS011;45497;43.996;22.876;2024-01-30T21:21:00;1.10;;;0.50;;
59492;SDS011;45497;43.996;22.876;2024-01-30T21:23:26;0.43;;;0.43;;
59492;SDS011;45497;43.996;22.876;2024-01-30T21:25:52;0.30;;;0.30;;
59492;SDS011;45497;43.996;22.876;2024-01-30T21:28:25;0.47;;;0.47;;
59492;SDS011;45497;43.996;22.876;2024-01-30T21:30:51;0.20;;;0.20;;
59492;SDS011;45497;43.996;22.876;2024-01-30T21:33:22;0.80;;;0.80;;
59492;SDS011;45497;43.996;22.876;2024-01-30T21:35:51;0.40;;;0.40;;
59492;SDS011;45497;43.996;22.876;2024-01-30T21:38:24;0.50;;;0.50;;
59492;SDS011;45497;43.996;22.876;2024-01-30T21:40:55;0.30;;;0.30;;
59492;SDS011;45497;43.996;22.876;2024-01-30T21:43:21;0.22;;;0.22;;
59492;SDS011;45497;43.996;22.876;2024-01-30T21:45:46;0.40;;;0.40;;
59492;SDS011;45497;43.996;22.876;2024-01-30T21:48:15;0.30;;;0.30;;
59492;SDS011;45497;43.996;22.876;2024-01-30T21:50:41;0.22;;;0.22;;
59492;SDS011;45497;43.996;22.876;2024-01-30T21:53:07;0.20;;;0.20;;
59492;SDS011;45497;43.996;22.876;2024-01-30T21:55:38;0.40;;;0.40;;
59492;SDS011;45497;43.996;22.876;2024-01-30T21:58:04;1.20;;;1.20;;
59492;SDS011;45497;43.996;22.876;2024-01-30T22:00:33;0.20;;;0.20;;
59492;SDS011;45497;43.996;22.876;2024-01-30T22:03:00;0.40;;;0.40;;
59492;SDS011;45497;43.996;22.876;2024-01-30T22:05:25;0.27;;;0.27;;
59492;SDS011;45497;43.996;22.876;2024-01-30T22:07:53;0.30;;;0.30;;
59492;SDS011;45497;43.996;22.876;2024-01-30T22:10:19;0.20;;;0.20;;
59492;SDS011;45497;43.996;22.876;2024-01-30T22:12:55;1.20;;;1.00;;
59492;SDS011;45497;43.996;22.876;2024-01-30T22:15:23;0.20;;;0.20;;
59492;SDS011;45497;43.996;22.876;2024-01-30T22:17:54;0.10;;;0.10;;
59492;SDS011;45497;43.996;22.876;2024-01-30T22:20:22;0.20;;;0.20;;
59492;SDS011;45497;43.996;22.876;2024-01-30T22:23:02;0.60;;;0.60;;
59492;SDS011;45497;43.996;22.876;2024-01-30T22:25:41;0.30;;;0.30;;
59492;SDS011;45497;43.996;22.876;2024-01-30T22:28:07;0.10;;;0.10;;
59492;SDS011;45497;43.996;22.876;2024-01-30T22:30:35;0.30;;;0.30;;
59492;SDS011;45497;43.996;22.876;2024-01-30T22:33:03;0.28;;;0.28;;
59492;SDS011;45497;43.996;22.876;2024-01-30T22:35:31;0.20;;;0.20;;
59492;SDS011;45497;43.996;22.876;2024-01-30T22:38:03;0.60;;;0.55;;
59492;SDS011;45497;43.996;22.876;2024-01-30T22:40:32;0.10;;;0.10;;
59492;SDS011;45497;43.996;22.876;2024-01-30T22:42:59;0.20;;;0.20;;
59492;SDS011;45497;43.996;22.876;2024-01-30T22:45:25;0.30;;;0.30;;
59492;SDS011;45497;43.996;22.876;2024-01-30T22:47:50;3.03;;;1.00;;
59492;SDS011;45497;43.996;22.876;2024-01-30T22:50:16;0.35;;;0.35;;
59492;SDS011;45497;43.996;22.876;2024-01-30T22:52:42;0.60;;;0.60;;
59492;SDS011;45497;43.996;22.876;2024-01-30T22:55:11;1.10;;;1.00;;
59492;SDS011;45497;43.996;22.876;2024-01-30T22:57:36;0.10;;;0.10;;
59492;SDS011;45497;43.996;22.876;2024-01-30T23:00:05;1.10;;;0.40;;
59492;SDS011;45497;43.996;22.876;2024-01-30T23:02:43;0.10;;;0.10;;
59492;SDS011;45497;43.996;22.876;2024-01-30T23:05:11;0.32;;;0.32;;
59492;SDS011;45497;43.996;22.876;2024-01-30T23:07:42;0.70;;;0.70;;
59492;SDS011;45497;43.996;22.876;2024-01-30T23:10:08;0.30;;;0.30;;
59492;SDS011;45497;43.996;22.876;2024-01-30T23:12:35;0.20;;;0.20;;
59492;SDS011;45497;43.996;22.876;2024-01-30T23:15:01;0.10;;;0.10;;
59492;SDS011;45497;43.996;22.876;2024-01-30T23:17:30;0.30;;;0.30;;
59492;SDS011;45497;43.996;22.876;2024-01-30T23:19:58;0.10;;;0.10;;
59492;SDS011;45497;43.996;22.876;2024-01-30T23:22:30;0.30;;;0.30;;
59492;SDS011;45497;43.996;22.876;2024-01-30T23:24:56;0.60;;;0.30;;
59492;SDS011;45497;43.996;22.876;2024-01-30T23:27:22;0.20;;;0.20;;
59492;SDS011;45497;43.996;22.876;2024-01-30T23:29:50;0.40;;;0.30;;
59492;SDS011;45497;43.996;22.876;2024-01-30T23:32:19;0.20;;;0.20;;
59492;SDS011;45497;43.996;22.876;2024-01-30T23:34:44;0.30;;;0.30;;
59492;SDS011;45497;43.996;22.876;2024-01-30T23:37:10;2.10;;;0.90;;
59492;SDS011;45497;43.996;22.876;2024-01-30T23:39:38;0.20;;;0.20;;
59492;SDS011;45497;43.996;22.876;2024-01-30T23:42:07;0.40;;;0.40;;
59492;SDS011;45497;43.996;22.876;2024-01-30T23:44:33;0.40;;;0.40;;
59492;SDS011;45497;43.996;22.876;2024-01-30T23:47:06;0.30;;;0.30;;
59492;SDS011;45497;43.996;22.876;2024-01-30T23:49:32;0.20;;;0.20;;
59492;SDS011;45497;43.996;22.876;2024-01-30T23:52:03;0.20;;;0.20;;
59492;SDS011;45497;43.996;22.876;2024-01-30T23:54:29;0.32;;;0.32;;
59492;SDS011;45497;43.996;22.876;2024-01-30T23:56:55;0.10;;;0.10;;
59492;SDS011;45497;43.996;22.876;2024-01-30T23:59:20;0.20;;;0.20;;
